sensor_id;sensor_type;location;lat;lon;timestamp;P1;durP1;ratioP1;P2;durP2;ratioP2
3865;SDS011;1948;53.250;10.412;2022-11-20T00:01:31;7.47;;;6.80;;
3865;SDS011;1948;53.250;10.412;2022-11-20T00:03:59;9.47;;;7.57;;
3865;SDS011;1948;53.250;10.412;2022-11-20T00:06:26;8.53;;;6.87;;
3865;SDS011;1948;53.250;10.412;2022-11-20T00:08:55;8.87;;;7.40;;
3865;SDS011;1948;53.250;10.412;2022-11-20T00:11:27;7.90;;;7.00;;
3865;SDS011;1948;53.250;10.412;2022-11-20T00:13:56;10.13;;;7.00;;
3865;SDS011;1948;53.250;10.412;2022-11-20T00:16:26;8.43;;;7.67;;
3865;SDS011;1948;53.250;10.412;2022-11-20T00:18:56;8.20;;;7.17;;
3865;SDS011;1948;53.250;10.412;2022-11-20T00:21:26;7.63;;;6.97;;
3865;SDS011;1948;53.250;10.412;2022-11-20T00:23:55;8.37;;;7.27;;
3865;SDS011;1948;53.250;10.412;2022-11-20T00:26:24;9.03;;;7.20;;
3865;SDS011;1948;53.250;10.412;2022-11-20T00:28:56;7.80;;;7.13;;
3865;SDS011;1948;53.250;10.412;2022-11-20T00:31:26;8.17;;;7.57;;
3865;SDS011;1948;53.250;10.412;2022-11-20T00:33:54;8.07;;;7.07;;
3865;SDS011;1948;53.250;10.412;2022-11-20T00:36:21;13.20;;;7.33;;
3865;SDS011;1948;53.250;10.412;2022-11-20T00:38:52;9.23;;;7.90;;
3865;SDS011;1948;53.250;10.412;2022-11-20T00:41:20;12.60;;;8.73;;
3865;SDS011;1948;53.250;10.412;2022-11-20T00:43:48;9.23;;;8.03;;
3865;SDS011;1948;53.250;10.412;2022-11-20T00:46:18;9.67;;;8.30;;
3865;SDS011;1948;53.250;10.412;2022-11-20T00:48:50;9.30;;;8.33;;
3865;SDS011;1948;53.250;10.412;2022-11-20T00:51:17;9.07;;;8.13;;
3865;SDS011;1948;53.250;10.412;2022-11-20T00:53:47;10.73;;;8.03;;
3865;SDS011;1948;53.250;10.412;2022-11-20T00:56:17;12.20;;;8.17;;
3865;SDS011;1948;53.250;10.412;2022-11-20T00:58:46;9.17;;;8.27;;
3865;SDS011;1948;53.250;10.412;2022-11-20T01:01:18;9.03;;;8.13;;
3865;SDS011;1948;53.250;10.412;2022-11-20T01:03:53;9.97;;;8.57;;
3865;SDS011;1948;53.250;10.412;2022-11-20T01:06:27;8.67;;;7.80;;
3865;SDS011;1948;53.250;10.412;2022-11-20T01:09:04;7.90;;;7.20;;
3865;SDS011;1948;53.250;10.412;2022-11-20T01:11:41;13.23;;;8.40;;
3865;SDS011;1948;53.250;10.412;2022-11-20T01:14:14;8.43;;;7.80;;
3865;SDS011;1948;53.250;10.412;2022-11-20T01:16:45;9.03;;;8.23;;
3865;SDS011;1948;53.250;10.412;2022-11-20T01:19:20;9.40;;;8.50;;
3865;SDS011;1948;53.250;10.412;2022-11-20T01:21:51;10.33;;;8.33;;
3865;SDS011;1948;53.250;10.412;2022-11-20T01:24:21;8.77;;;8.00;;
3865;SDS011;1948;53.250;10.412;2022-11-20T01:26:49;8.87;;;7.93;;
3865;SDS011;1948;53.250;10.412;2022-11-20T01:29:19;10.50;;;8.60;;
3865;SDS011;1948;53.250;10.412;2022-11-20T01:31:49;8.80;;;8.00;;
3865;SDS011;1948;53.250;10.412;2022-11-20T01:34:20;9.70;;;8.70;;
3865;SDS011;1948;53.250;10.412;2022-11-20T01:36:50;11.53;;;8.67;;
3865;SDS011;1948;53.250;10.412;2022-11-20T01:39:24;9.43;;;8.53;;
3865;SDS011;1948;53.250;10.412;2022-11-20T01:41:54;9.47;;;8.53;;
3865;SDS011;1948;53.250;10.412;2022-11-20T01:44:58;8.83;;;7.87;;
3865;SDS011;1948;53.250;10.412;2022-11-20T01:50:18;9.03;;;8.13;;
3865;SDS011;1948;53.250;10.412;2022-11-20T01:52:54;9.10;;;8.10;;
3865;SDS011;1948;53.250;10.412;2022-11-20T01:55:29;8.83;;;8.10;;
3865;SDS011;1948;53.250;10.412;2022-11-20T01:58:01;13.93;;;8.57;;
3865;SDS011;1948;53.250;10.412;2022-11-20T02:00:29;9.83;;;8.57;;
3865;SDS011;1948;53.250;10.412;2022-11-20T02:03:00;10.17;;;8.40;;
3865;SDS011;1948;53.250;10.412;2022-11-20T02:08:12;9.00;;;8.10;;
3865;SDS011;1948;53.250;10.412;2022-11-20T02:10:39;8.10;;;7.40;;
3865;SDS011;1948;53.250;10.412;2022-11-20T02:13:09;9.63;;;7.47;;
3865;SDS011;1948;53.250;10.412;2022-11-20T02:15:57;8.50;;;7.73;;
3865;SDS011;1948;53.250;10.412;2022-11-20T02:18:26;10.60;;;8.13;;
3865;SDS011;1948;53.250;10.412;2022-11-20T02:20:58;8.57;;;7.67;;
3865;SDS011;1948;53.250;10.412;2022-11-20T02:23:57;8.90;;;8.13;;
3865;SDS011;1948;53.250;10.412;2022-11-20T02:26:43;8.43;;;7.63;;
3865;SDS011;1948;53.250;10.412;2022-11-20T02:30:06;9.03;;;8.20;;
3865;SDS011;1948;53.250;10.412;2022-11-20T02:32:30;8.60;;;7.73;;
3865;SDS011;1948;53.250;10.412;2022-11-20T02:35:07;8.50;;;7.90;;
3865;SDS011;1948;53.250;10.412;2022-11-20T02:37:56;9.07;;;8.27;;
3865;SDS011;1948;53.250;10.412;2022-11-20T02:40:27;11.40;;;8.60;;
3865;SDS011;1948;53.250;10.412;2022-11-20T02:42:58;10.10;;;8.13;;
3865;SDS011;1948;53.250;10.412;2022-11-20T02:45:25;8.20;;;7.47;;
3865;SDS011;1948;53.250;10.412;2022-11-20T02:47:52;8.37;;;7.67;;
3865;SDS011;1948;53.250;10.412;2022-11-20T02:50:19;9.67;;;7.67;;
3865;SDS011;1948;53.250;10.412;2022-11-20T02:52:46;11.30;;;7.50;;
3865;SDS011;1948;53.250;10.412;2022-11-20T02:55:13;8.07;;;7.40;;
3865;SDS011;1948;53.250;10.412;2022-11-20T02:57:40;9.03;;;8.17;;
3865;SDS011;1948;53.250;10.412;2022-11-20T03:00:07;8.20;;;7.50;;
3865;SDS011;1948;53.250;10.412;2022-11-20T03:02:35;9.00;;;7.57;;
3865;SDS011;1948;53.250;10.412;2022-11-20T03:05:02;8.57;;;7.70;;
3865;SDS011;1948;53.250;10.412;2022-11-20T03:07:32;8.27;;;7.43;;
3865;SDS011;1948;53.250;10.412;2022-11-20T03:10:01;8.00;;;7.30;;
3865;SDS011;1948;53.250;10.412;2022-11-20T03:12:32;8.10;;;7.47;;
3865;SDS011;1948;53.250;10.412;2022-11-20T03:14:59;13.60;;;7.20;;
3865;SDS011;1948;53.250;10.412;2022-11-20T03:17:26;7.60;;;7.00;;
3865;SDS011;1948;53.250;10.412;2022-11-20T03:19:56;6.87;;;6.37;;
3865;SDS011;1948;53.250;10.412;2022-11-20T03:22:29;9.90;;;7.63;;
3865;SDS011;1948;53.250;10.412;2022-11-20T03:24:56;7.20;;;6.60;;
3865;SDS011;1948;53.250;10.412;2022-11-20T03:27:26;13.63;;;6.67;;
3865;SDS011;1948;53.250;10.412;2022-11-20T03:29:55;6.73;;;6.20;;
3865;SDS011;1948;53.250;10.412;2022-11-20T03:32:24;9.80;;;5.90;;
3865;SDS011;1948;53.250;10.412;2022-11-20T03:34:51;10.83;;;7.07;;
3865;SDS011;1948;53.250;10.412;2022-11-20T03:37:20;6.23;;;5.80;;
3865;SDS011;1948;53.250;10.412;2022-11-20T03:39:47;6.37;;;5.97;;
3865;SDS011;1948;53.250;10.412;2022-11-20T03:42:14;7.50;;;6.80;;
3865;SDS011;1948;53.250;10.412;2022-11-20T03:45:04;6.20;;;5.80;;
3865;SDS011;1948;53.250;10.412;2022-11-20T03:47:32;6.60;;;6.10;;
3865;SDS011;1948;53.250;10.412;2022-11-20T03:49:59;9.60;;;6.03;;
3865;SDS011;1948;53.250;10.412;2022-11-20T03:52:26;6.40;;;5.90;;
3865;SDS011;1948;53.250;10.412;2022-11-20T03:54:52;7.60;;;5.70;;
3865;SDS011;1948;53.250;10.412;2022-11-20T03:57:19;6.30;;;5.80;;
3865;SDS011;1948;53.250;10.412;2022-11-20T03:59:46;6.10;;;5.70;;
3865;SDS011;1948;53.250;10.412;2022-11-20T04:02:18;6.83;;;6.27;;
3865;SDS011;1948;53.250;10.412;2022-11-20T04:04:47;7.20;;;6.30;;
3865;SDS011;1948;53.250;10.412;2022-11-20T04:07:16;7.63;;;5.63;;
3865;SDS011;1948;53.250;10.412;2022-11-20T04:09:45;5.73;;;5.43;;
3865;SDS011;1948;53.250;10.412;2022-11-20T04:12:14;5.63;;;5.40;;
3865;SDS011;1948;53.250;10.412;2022-11-20T04:14:41;6.23;;;5.67;;
3865;SDS011;1948;53.250;10.412;2022-11-20T04:17:08;7.07;;;6.30;;
3865;SDS011;1948;53.250;10.412;2022-11-20T04:19:40;5.97;;;5.67;;
3865;SDS011;1948;53.250;10.412;2022-11-20T04:22:09;5.70;;;5.30;;
3865;SDS011;1948;53.250;10.412;2022-11-20T04:24:41;11.60;;;5.83;;
3865;SDS011;1948;53.250;10.412;2022-11-20T04:27:08;6.40;;;5.80;;
3865;SDS011;1948;53.250;10.412;2022-11-20T04:29:39;5.77;;;5.37;;
3865;SDS011;1948;53.250;10.412;2022-11-20T04:32:09;6.77;;;6.23;;
3865;SDS011;1948;53.250;10.412;2022-11-20T04:34:38;6.93;;;5.97;;
3865;SDS011;1948;53.250;10.412;2022-11-20T04:37:05;6.33;;;5.73;;
3865;SDS011;1948;53.250;10.412;2022-11-20T04:39:32;11.27;;;6.93;;
3865;SDS011;1948;53.250;10.412;2022-11-20T04:41:58;10.87;;;6.40;;
3865;SDS011;1948;53.250;10.412;2022-11-20T04:44:44;6.93;;;6.43;;
3865;SDS011;1948;53.250;10.412;2022-11-20T04:47:10;7.60;;;6.90;;
3865;SDS011;1948;53.250;10.412;2022-11-20T04:49:37;7.17;;;6.53;;
3865;SDS011;1948;53.250;10.412;2022-11-20T04:52:07;6.97;;;6.43;;
3865;SDS011;1948;53.250;10.412;2022-11-20T04:54:34;6.60;;;6.07;;
3865;SDS011;1948;53.250;10.412;2022-11-20T04:57:01;7.60;;;6.13;;
3865;SDS011;1948;53.250;10.412;2022-11-20T04:59:38;6.73;;;6.13;;
3865;SDS011;1948;53.250;10.412;2022-11-20T05:02:10;8.73;;;7.20;;
3865;SDS011;1948;53.250;10.412;2022-11-20T05:04:37;7.30;;;6.70;;
3865;SDS011;1948;53.250;10.412;2022-11-20T05:07:04;7.70;;;7.10;;
3865;SDS011;1948;53.250;10.412;2022-11-20T05:09:31;9.20;;;7.07;;
3865;SDS011;1948;53.250;10.412;2022-11-20T05:12:00;7.37;;;6.67;;
3865;SDS011;1948;53.250;10.412;2022-11-20T05:14:30;7.57;;;7.07;;
3865;SDS011;1948;53.250;10.412;2022-11-20T05:16:57;9.00;;;6.43;;
3865;SDS011;1948;53.250;10.412;2022-11-20T05:19:26;7.57;;;6.97;;
3865;SDS011;1948;53.250;10.412;2022-11-20T05:21:56;8.00;;;7.20;;
3865;SDS011;1948;53.250;10.412;2022-11-20T05:24:23;7.40;;;6.70;;
3865;SDS011;1948;53.250;10.412;2022-11-20T05:26:54;8.33;;;7.60;;
3865;SDS011;1948;53.250;10.412;2022-11-20T05:29:21;8.53;;;7.43;;
3865;SDS011;1948;53.250;10.412;2022-11-20T05:31:48;11.73;;;7.97;;
3865;SDS011;1948;53.250;10.412;2022-11-20T05:34:15;17.20;;;8.17;;
3865;SDS011;1948;53.250;10.412;2022-11-20T05:36:42;9.03;;;8.13;;
3865;SDS011;1948;53.250;10.412;2022-11-20T05:39:09;9.20;;;7.97;;
3865;SDS011;1948;53.250;10.412;2022-11-20T05:41:36;8.87;;;8.00;;
3865;SDS011;1948;53.250;10.412;2022-11-20T05:44:05;8.40;;;7.63;;
3865;SDS011;1948;53.250;10.412;2022-11-20T05:46:32;10.13;;;7.80;;
3865;SDS011;1948;53.250;10.412;2022-11-20T05:49:01;11.10;;;8.13;;
3865;SDS011;1948;53.250;10.412;2022-11-20T05:51:28;9.30;;;7.83;;
3865;SDS011;1948;53.250;10.412;2022-11-20T05:53:56;8.83;;;7.93;;
3865;SDS011;1948;53.250;10.412;2022-11-20T05:56:25;10.00;;;9.00;;
3865;SDS011;1948;53.250;10.412;2022-11-20T05:58:52;9.60;;;8.70;;
3865;SDS011;1948;53.250;10.412;2022-11-20T06:01:23;9.70;;;8.70;;
3865;SDS011;1948;53.250;10.412;2022-11-20T06:03:52;10.53;;;9.53;;
3865;SDS011;1948;53.250;10.412;2022-11-20T06:06:20;20.07;;;9.90;;
3865;SDS011;1948;53.250;10.412;2022-11-20T06:08:47;11.93;;;10.17;;
3865;SDS011;1948;53.250;10.412;2022-11-20T06:11:15;12.20;;;9.77;;
3865;SDS011;1948;53.250;10.412;2022-11-20T06:13:43;10.73;;;9.67;;
3865;SDS011;1948;53.250;10.412;2022-11-20T06:16:14;11.80;;;10.60;;
3865;SDS011;1948;53.250;10.412;2022-11-20T06:18:43;10.93;;;9.50;;
3865;SDS011;1948;53.250;10.412;2022-11-20T06:21:14;10.50;;;9.40;;
3865;SDS011;1948;53.250;10.412;2022-11-20T06:23:44;12.30;;;10.50;;
3865;SDS011;1948;53.250;10.412;2022-11-20T06:26:18;12.60;;;9.80;;
3865;SDS011;1948;53.250;10.412;2022-11-20T06:28:51;13.17;;;10.73;;
3865;SDS011;1948;53.250;10.412;2022-11-20T06:31:22;14.93;;;10.40;;
3865;SDS011;1948;53.250;10.412;2022-11-20T06:33:51;11.57;;;10.37;;
3865;SDS011;1948;53.250;10.412;2022-11-20T06:36:19;15.87;;;11.40;;
3865;SDS011;1948;53.250;10.412;2022-11-20T06:38:48;14.00;;;10.90;;
3865;SDS011;1948;53.250;10.412;2022-11-20T06:41:18;12.63;;;10.90;;
3865;SDS011;1948;53.250;10.412;2022-11-20T06:43:49;13.23;;;10.50;;
3865;SDS011;1948;53.250;10.412;2022-11-20T06:46:17;15.80;;;11.53;;
3865;SDS011;1948;53.250;10.412;2022-11-20T06:48:47;19.10;;;12.07;;
3865;SDS011;1948;53.250;10.412;2022-11-20T06:51:16;15.20;;;11.73;;
3865;SDS011;1948;53.250;10.412;2022-11-20T06:53:44;20.60;;;12.40;;
3865;SDS011;1948;53.250;10.412;2022-11-20T06:56:13;14.20;;;11.27;;
3865;SDS011;1948;53.250;10.412;2022-11-20T06:58:47;16.43;;;10.77;;
3865;SDS011;1948;53.250;10.412;2022-11-20T07:01:19;16.80;;;11.87;;
3865;SDS011;1948;53.250;10.412;2022-11-20T07:03:48;15.73;;;11.73;;
3865;SDS011;1948;53.250;10.412;2022-11-20T07:06:19;24.83;;;12.70;;
3865;SDS011;1948;53.250;10.412;2022-11-20T07:08:46;19.03;;;12.03;;
3865;SDS011;1948;53.250;10.412;2022-11-20T07:11:13;17.40;;;12.07;;
3865;SDS011;1948;53.250;10.412;2022-11-20T07:13:40;18.43;;;13.33;;
3865;SDS011;1948;53.250;10.412;2022-11-20T07:16:07;18.13;;;12.70;;
3865;SDS011;1948;53.250;10.412;2022-11-20T07:18:35;17.67;;;12.00;;
3865;SDS011;1948;53.250;10.412;2022-11-20T07:21:08;17.43;;;12.40;;
3865;SDS011;1948;53.250;10.412;2022-11-20T07:23:36;14.50;;;12.10;;
3865;SDS011;1948;53.250;10.412;2022-11-20T07:26:07;21.47;;;13.33;;
3865;SDS011;1948;53.250;10.412;2022-11-20T07:28:36;17.47;;;12.67;;
3865;SDS011;1948;53.250;10.412;2022-11-20T07:31:04;17.03;;;13.57;;
3865;SDS011;1948;53.250;10.412;2022-11-20T07:33:33;23.97;;;13.60;;
3865;SDS011;1948;53.250;10.412;2022-11-20T07:36:01;20.33;;;12.43;;
3865;SDS011;1948;53.250;10.412;2022-11-20T07:38:28;20.57;;;13.80;;
3865;SDS011;1948;53.250;10.412;2022-11-20T07:40:55;20.70;;;13.10;;
3865;SDS011;1948;53.250;10.412;2022-11-20T07:43:29;24.07;;;13.17;;
3865;SDS011;1948;53.250;10.412;2022-11-20T07:46:06;20.87;;;13.23;;
3865;SDS011;1948;53.250;10.412;2022-11-20T07:48:33;16.13;;;12.40;;
3865;SDS011;1948;53.250;10.412;2022-11-20T07:51:02;25.63;;;12.27;;
3865;SDS011;1948;53.250;10.412;2022-11-20T07:53:34;16.20;;;12.73;;
3865;SDS011;1948;53.250;10.412;2022-11-20T07:56:01;17.97;;;12.00;;
3865;SDS011;1948;53.250;10.412;2022-11-20T07:58:29;14.50;;;12.70;;
3865;SDS011;1948;53.250;10.412;2022-11-20T08:01:02;17.07;;;13.20;;
3865;SDS011;1948;53.250;10.412;2022-11-20T08:03:31;15.53;;;11.90;;
3865;SDS011;1948;53.250;10.412;2022-11-20T08:05:59;14.10;;;11.70;;
3865;SDS011;1948;53.250;10.412;2022-11-20T08:08:27;18.13;;;12.30;;
3865;SDS011;1948;53.250;10.412;2022-11-20T08:10:59;14.40;;;11.50;;
3865;SDS011;1948;53.250;10.412;2022-11-20T08:13:46;17.43;;;12.73;;
3865;SDS011;1948;53.250;10.412;2022-11-20T08:16:31;16.50;;;12.20;;
3865;SDS011;1948;53.250;10.412;2022-11-20T08:18:58;13.30;;;10.60;;
3865;SDS011;1948;53.250;10.412;2022-11-20T08:21:25;21.60;;;11.77;;
3865;SDS011;1948;53.250;10.412;2022-11-20T08:23:52;19.17;;;11.90;;
3865;SDS011;1948;53.250;10.412;2022-11-20T08:26:22;16.23;;;11.63;;
3865;SDS011;1948;53.250;10.412;2022-11-20T08:28:52;16.30;;;12.30;;
3865;SDS011;1948;53.250;10.412;2022-11-20T08:31:20;15.90;;;12.17;;
3865;SDS011;1948;53.250;10.412;2022-11-20T08:33:53;13.00;;;10.83;;
3865;SDS011;1948;53.250;10.412;2022-11-20T08:36:25;17.70;;;12.33;;
3865;SDS011;1948;53.250;10.412;2022-11-20T08:38:53;11.87;;;10.50;;
3865;SDS011;1948;53.250;10.412;2022-11-20T08:41:21;14.83;;;11.73;;
3865;SDS011;1948;53.250;10.412;2022-11-20T08:43:53;15.27;;;11.30;;
3865;SDS011;1948;53.250;10.412;2022-11-20T08:46:31;11.67;;;10.50;;
3865;SDS011;1948;53.250;10.412;2022-11-20T08:49:01;12.77;;;11.23;;
3865;SDS011;1948;53.250;10.412;2022-11-20T08:51:32;14.63;;;11.50;;
3865;SDS011;1948;53.250;10.412;2022-11-20T08:54:02;15.30;;;11.27;;
3865;SDS011;1948;53.250;10.412;2022-11-20T08:56:30;11.77;;;10.57;;
3865;SDS011;1948;53.250;10.412;2022-11-20T08:59:00;13.10;;;10.80;;
3865;SDS011;1948;53.250;10.412;2022-11-20T09:01:49;11.10;;;9.90;;
3865;SDS011;1948;53.250;10.412;2022-11-20T09:09:46;11.53;;;9.73;;
3865;SDS011;1948;53.250;10.412;2022-11-20T09:12:33;12.37;;;10.57;;
3865;SDS011;1948;53.250;10.412;2022-11-20T09:15:00;11.17;;;9.83;;
3865;SDS011;1948;53.250;10.412;2022-11-20T09:17:27;14.97;;;10.10;;
3865;SDS011;1948;53.250;10.412;2022-11-20T09:19:56;8.27;;;7.57;;
3865;SDS011;1948;53.250;10.412;2022-11-20T09:22:23;8.43;;;7.67;;
3865;SDS011;1948;53.250;10.412;2022-11-20T09:24:50;9.17;;;7.53;;
3865;SDS011;1948;53.250;10.412;2022-11-20T09:27:17;7.37;;;6.77;;
3865;SDS011;1948;53.250;10.412;2022-11-20T09:29:47;6.97;;;6.50;;
3865;SDS011;1948;53.250;10.412;2022-11-20T09:32:14;9.20;;;7.33;;
3865;SDS011;1948;53.250;10.412;2022-11-20T09:34:41;9.00;;;8.30;;
3865;SDS011;1948;53.250;10.412;2022-11-20T09:37:08;12.53;;;8.47;;
3865;SDS011;1948;53.250;10.412;2022-11-20T09:39:35;8.53;;;7.70;;
3865;SDS011;1948;53.250;10.412;2022-11-20T09:56:50;10.70;;;8.50;;
3865;SDS011;1948;53.250;10.412;2022-11-20T10:00:04;10.13;;;9.10;;
3865;SDS011;1948;53.250;10.412;2022-11-20T10:05:38;8.90;;;8.10;;
3865;SDS011;1948;53.250;10.412;2022-11-20T10:08:16;9.93;;;9.00;;
3865;SDS011;1948;53.250;10.412;2022-11-20T10:10:47;9.47;;;8.57;;
3865;SDS011;1948;53.250;10.412;2022-11-20T10:13:48;8.87;;;8.00;;
3865;SDS011;1948;53.250;10.412;2022-11-20T10:16:35;8.90;;;8.10;;
3865;SDS011;1948;53.250;10.412;2022-11-20T10:22:29;8.80;;;8.10;;
3865;SDS011;1948;53.250;10.412;2022-11-20T10:28:20;7.07;;;6.57;;
3865;SDS011;1948;53.250;10.412;2022-11-20T10:34:05;12.23;;;9.03;;
3865;SDS011;1948;53.250;10.412;2022-11-20T10:37:14;9.57;;;7.53;;
3865;SDS011;1948;53.250;10.412;2022-11-20T10:42:24;9.20;;;8.30;;
3865;SDS011;1948;53.250;10.412;2022-11-20T10:45:02;10.10;;;8.17;;
3865;SDS011;1948;53.250;10.412;2022-11-20T10:47:54;7.77;;;7.17;;
3865;SDS011;1948;53.250;10.412;2022-11-20T10:51:03;9.30;;;8.30;;
3865;SDS011;1948;53.250;10.412;2022-11-20T10:53:57;8.73;;;7.87;;
3865;SDS011;1948;53.250;10.412;2022-11-20T10:56:39;8.63;;;7.47;;
3865;SDS011;1948;53.250;10.412;2022-11-20T10:59:26;7.00;;;6.40;;
3865;SDS011;1948;53.250;10.412;2022-11-20T11:02:21;8.43;;;6.87;;
3865;SDS011;1948;53.250;10.412;2022-11-20T11:04:50;12.83;;;7.70;;
3865;SDS011;1948;53.250;10.412;2022-11-20T11:07:38;8.53;;;7.83;;
3865;SDS011;1948;53.250;10.412;2022-11-20T11:13:07;7.03;;;6.33;;
3865;SDS011;1948;53.250;10.412;2022-11-20T11:15:53;8.07;;;7.37;;
3865;SDS011;1948;53.250;10.412;2022-11-20T11:18:31;10.20;;;7.13;;
3865;SDS011;1948;53.250;10.412;2022-11-20T11:21:00;7.50;;;6.90;;
3865;SDS011;1948;53.250;10.412;2022-11-20T11:26:18;7.73;;;7.27;;
3865;SDS011;1948;53.250;10.412;2022-11-20T11:28:58;8.20;;;7.57;;
3865;SDS011;1948;53.250;10.412;2022-11-20T11:34:05;7.90;;;6.77;;
3865;SDS011;1948;53.250;10.412;2022-11-20T11:36:33;6.23;;;5.70;;
3865;SDS011;1948;53.250;10.412;2022-11-20T11:39:03;6.07;;;5.50;;
3865;SDS011;1948;53.250;10.412;2022-11-20T11:41:38;6.60;;;6.10;;
3865;SDS011;1948;53.250;10.412;2022-11-20T11:47:05;5.73;;;5.27;;
3865;SDS011;1948;53.250;10.412;2022-11-20T11:49:48;5.23;;;4.93;;
3865;SDS011;1948;53.250;10.412;2022-11-20T11:52:48;5.53;;;5.10;;
3865;SDS011;1948;53.250;10.412;2022-11-20T11:55:26;4.97;;;4.67;;
3865;SDS011;1948;53.250;10.412;2022-11-20T12:03:44;4.27;;;4.17;;
3865;SDS011;1948;53.250;10.412;2022-11-20T12:06:27;4.70;;;4.43;;
3865;SDS011;1948;53.250;10.412;2022-11-20T12:08:59;4.63;;;4.50;;
3865;SDS011;1948;53.250;10.412;2022-11-20T12:11:37;9.50;;;4.30;;
3865;SDS011;1948;53.250;10.412;2022-11-20T12:17:01;5.30;;;4.97;;
3865;SDS011;1948;53.250;10.412;2022-11-20T12:19:31;4.03;;;3.73;;
3865;SDS011;1948;53.250;10.412;2022-11-20T12:30:19;4.13;;;3.90;;
3865;SDS011;1948;53.250;10.412;2022-11-20T12:56:48;6.63;;;6.17;;
3865;SDS011;1948;53.250;10.412;2022-11-20T13:01:58;7.67;;;7.03;;
3865;SDS011;1948;53.250;10.412;2022-11-20T13:07:34;7.00;;;6.50;;
3865;SDS011;1948;53.250;10.412;2022-11-20T13:10:02;7.40;;;6.77;;
3865;SDS011;1948;53.250;10.412;2022-11-20T13:12:44;6.83;;;6.43;;
3865;SDS011;1948;53.250;10.412;2022-11-20T13:18:12;6.30;;;5.77;;
3865;SDS011;1948;53.250;10.412;2022-11-20T13:20:46;5.80;;;5.50;;
3865;SDS011;1948;53.250;10.412;2022-11-20T13:23:25;5.87;;;5.47;;
3865;SDS011;1948;53.250;10.412;2022-11-20T13:26:03;6.33;;;5.80;;
3865;SDS011;1948;53.250;10.412;2022-11-20T13:28:32;5.97;;;5.57;;
3865;SDS011;1948;53.250;10.412;2022-11-20T13:31:02;6.33;;;6.03;;
3865;SDS011;1948;53.250;10.412;2022-11-20T13:33:36;6.80;;;6.03;;
3865;SDS011;1948;53.250;10.412;2022-11-20T13:36:06;10.93;;;6.17;;
3865;SDS011;1948;53.250;10.412;2022-11-20T13:38:57;7.23;;;5.70;;
3865;SDS011;1948;53.250;10.412;2022-11-20T13:44:12;5.73;;;5.43;;
3865;SDS011;1948;53.250;10.412;2022-11-20T13:46:48;6.23;;;5.67;;
3865;SDS011;1948;53.250;10.412;2022-11-20T13:50:03;5.77;;;5.47;;
3865;SDS011;1948;53.250;10.412;2022-11-20T14:03:40;4.63;;;4.43;;
3865;SDS011;1948;53.250;10.412;2022-11-20T14:06:29;5.03;;;4.83;;
3865;SDS011;1948;53.250;10.412;2022-11-20T14:09:09;4.87;;;4.27;;
3865;SDS011;1948;53.250;10.412;2022-11-20T14:11:45;4.00;;;3.90;;
3865;SDS011;1948;53.250;10.412;2022-11-20T14:14:16;3.97;;;3.80;;
3865;SDS011;1948;53.250;10.412;2022-11-20T14:16:49;4.57;;;4.37;;
3865;SDS011;1948;53.250;10.412;2022-11-20T14:21:52;4.20;;;4.10;;
3865;SDS011;1948;53.250;10.412;2022-11-20T14:24:44;5.00;;;4.80;;
3865;SDS011;1948;53.250;10.412;2022-11-20T14:27:18;4.80;;;4.60;;
3865;SDS011;1948;53.250;10.412;2022-11-20T14:29:47;4.10;;;3.90;;
3865;SDS011;1948;53.250;10.412;2022-11-20T14:32:19;5.17;;;4.70;;
3865;SDS011;1948;53.250;10.412;2022-11-20T14:34:48;5.67;;;5.27;;
3865;SDS011;1948;53.250;10.412;2022-11-20T14:37:18;5.83;;;5.53;;
3865;SDS011;1948;53.250;10.412;2022-11-20T14:39:50;5.47;;;5.07;;
3865;SDS011;1948;53.250;10.412;2022-11-20T14:42:21;5.20;;;4.90;;
3865;SDS011;1948;53.250;10.412;2022-11-20T14:44:57;5.40;;;4.93;;
3865;SDS011;1948;53.250;10.412;2022-11-20T14:47:26;4.70;;;4.60;;
3865;SDS011;1948;53.250;10.412;2022-11-20T14:49:57;4.80;;;4.37;;
3865;SDS011;1948;53.250;10.412;2022-11-20T14:52:35;4.80;;;4.70;;
3865;SDS011;1948;53.250;10.412;2022-11-20T14:55:02;6.53;;;4.90;;
3865;SDS011;1948;53.250;10.412;2022-11-20T14:57:34;5.00;;;4.70;;
3865;SDS011;1948;53.250;10.412;2022-11-20T15:00:03;5.07;;;4.80;;
3865;SDS011;1948;53.250;10.412;2022-11-20T15:02:43;5.63;;;5.33;;
3865;SDS011;1948;53.250;10.412;2022-11-20T15:05:13;5.27;;;4.97;;
3865;SDS011;1948;53.250;10.412;2022-11-20T15:07:44;6.43;;;6.03;;
3865;SDS011;1948;53.250;10.412;2022-11-20T15:10:22;6.07;;;5.67;;
3865;SDS011;1948;53.250;10.412;2022-11-20T15:18:18;6.10;;;5.70;;
3865;SDS011;1948;53.250;10.412;2022-11-20T15:20:49;4.83;;;4.53;;
3865;SDS011;1948;53.250;10.412;2022-11-20T15:23:18;5.80;;;5.40;;
3865;SDS011;1948;53.250;10.412;2022-11-20T15:25:46;5.10;;;4.90;;
3865;SDS011;1948;53.250;10.412;2022-11-20T15:28:19;6.13;;;5.70;;
3865;SDS011;1948;53.250;10.412;2022-11-20T15:30:59;5.30;;;5.00;;
3865;SDS011;1948;53.250;10.412;2022-11-20T15:33:29;11.07;;;6.83;;
3865;SDS011;1948;53.250;10.412;2022-11-20T15:35:57;8.47;;;7.63;;
3865;SDS011;1948;53.250;10.412;2022-11-20T15:38:25;8.00;;;7.20;;
3865;SDS011;1948;53.250;10.412;2022-11-20T15:40:52;10.40;;;7.67;;
3865;SDS011;1948;53.250;10.412;2022-11-20T15:43:20;6.10;;;5.60;;
3865;SDS011;1948;53.250;10.412;2022-11-20T15:48:45;5.90;;;5.60;;
3865;SDS011;1948;53.250;10.412;2022-11-20T15:51:24;6.37;;;5.90;;
3865;SDS011;1948;53.250;10.412;2022-11-20T15:54:03;9.50;;;7.13;;
3865;SDS011;1948;53.250;10.412;2022-11-20T15:56:38;7.83;;;7.13;;
3865;SDS011;1948;53.250;10.412;2022-11-20T15:59:08;13.00;;;8.10;;
3865;SDS011;1948;53.250;10.412;2022-11-20T16:01:35;7.73;;;7.03;;
3865;SDS011;1948;53.250;10.412;2022-11-20T16:04:04;7.57;;;7.00;;
3865;SDS011;1948;53.250;10.412;2022-11-20T16:06:41;8.20;;;7.43;;
3865;SDS011;1948;53.250;10.412;2022-11-20T16:09:09;8.80;;;7.93;;
3865;SDS011;1948;53.250;10.412;2022-11-20T16:11:38;10.60;;;8.17;;
3865;SDS011;1948;53.250;10.412;2022-11-20T16:14:05;14.97;;;8.40;;
3865;SDS011;1948;53.250;10.412;2022-11-20T16:16:54;8.70;;;7.83;;
3865;SDS011;1948;53.250;10.412;2022-11-20T16:19:21;8.57;;;7.70;;
3865;SDS011;1948;53.250;10.412;2022-11-20T16:21:48;9.13;;;7.10;;
3865;SDS011;1948;53.250;10.412;2022-11-20T16:24:16;6.57;;;6.07;;
3865;SDS011;1948;53.250;10.412;2022-11-20T16:26:44;6.90;;;6.00;;
3865;SDS011;1948;53.250;10.412;2022-11-20T16:29:11;6.77;;;6.17;;
3865;SDS011;1948;53.250;10.412;2022-11-20T16:31:38;7.97;;;7.17;;
3865;SDS011;1948;53.250;10.412;2022-11-20T16:34:07;8.07;;;6.73;;
3865;SDS011;1948;53.250;10.412;2022-11-20T16:36:49;6.07;;;5.67;;
3865;SDS011;1948;53.250;10.412;2022-11-20T16:39:19;6.80;;;6.30;;
3865;SDS011;1948;53.250;10.412;2022-11-20T16:41:49;10.93;;;8.00;;
3865;SDS011;1948;53.250;10.412;2022-11-20T16:44:16;9.23;;;7.30;;
3865;SDS011;1948;53.250;10.412;2022-11-20T16:46:43;8.53;;;7.83;;
3865;SDS011;1948;53.250;10.412;2022-11-20T16:49:13;8.80;;;7.90;;
3865;SDS011;1948;53.250;10.412;2022-11-20T16:51:40;9.67;;;8.73;;
3865;SDS011;1948;53.250;10.412;2022-11-20T16:54:09;9.63;;;8.53;;
3865;SDS011;1948;53.250;10.412;2022-11-20T16:56:43;13.17;;;9.27;;
3865;SDS011;1948;53.250;10.412;2022-11-20T16:59:17;10.33;;;8.97;;
3865;SDS011;1948;53.250;10.412;2022-11-20T17:01:46;15.13;;;8.47;;
3865;SDS011;1948;53.250;10.412;2022-11-20T17:04:13;14.00;;;9.20;;
3865;SDS011;1948;53.250;10.412;2022-11-20T17:06:44;11.33;;;10.00;;
3865;SDS011;1948;53.250;10.412;2022-11-20T17:09:11;13.90;;;10.30;;
3865;SDS011;1948;53.250;10.412;2022-11-20T17:11:41;11.00;;;9.63;;
3865;SDS011;1948;53.250;10.412;2022-11-20T17:14:09;11.27;;;9.67;;
3865;SDS011;1948;53.250;10.412;2022-11-20T17:16:37;11.37;;;9.30;;
3865;SDS011;1948;53.250;10.412;2022-11-20T17:19:04;15.00;;;9.50;;
3865;SDS011;1948;53.250;10.412;2022-11-20T17:21:34;12.50;;;9.47;;
3865;SDS011;1948;53.250;10.412;2022-11-20T17:24:08;14.83;;;9.80;;
3865;SDS011;1948;53.250;10.412;2022-11-20T17:26:38;15.23;;;10.17;;
3865;SDS011;1948;53.250;10.412;2022-11-20T17:29:08;15.53;;;10.00;;